Time;durP1;ratioP1;P1;durP2;ratioP2;P2;SDS_P1;SDS_P2;PMS_P1;PMS_P2;Temp;Humidity;BMP_temperature;BMP_pressure;BME280_temperature;BME280_humidity;BME280_pressure;Samples;Min_cycle;Max_cycle;Signal;HPM_P1;HPM_P2
2021/01/06 00:00:48;;;;;;;12.85;5.70;;;25.10;43.90;;;;;;5056042;28;20381;-49
2021/01/06 00:03:19;;;;;;;13.35;5.88;;;25.10;44.00;;;;;;5055616;28;20033;-49
2021/01/06 00:05:49;;;;;;;17.25;8.75;;;25.00;44.10;;;;;;5055700;28;20098;-49
2021/01/06 00:08:16;;;;;;;16.90;9.27;;;24.90;44.20;;;;;;5055864;28;20025;-49
2021/01/06 00:10:43;;;;;;;20.55;9.90;;;24.80;44.30;;;;;;5055218;28;20040;-49
2021/01/06 00:13:11;;;;;;;16.38;9.13;;;24.80;44.40;;;;;;5054970;28;20439;-49
2021/01/06 00:15:38;;;;;;;15.20;9.02;;;24.70;44.50;;;;;;5055464;28;20045;-49
2021/01/06 00:18:05;;;;;;;14.93;8.98;;;24.70;44.70;;;;;;5055026;28;20037;-49
2021/01/06 00:20:32;;;;;;;14.30;8.98;;;24.60;44.70;;;;;;5055039;28;20392;-49
2021/01/06 00:22:59;;;;;;;111.47;99.30;;;24.50;44.70;;;;;;5056603;28;20116;-49
2021/01/06 00:25:31;;;;;;;35.90;18.75;;;24.50;44.90;;;;;;5055896;28;20056;-50
2021/01/06 00:27:58;;;;;;;;;;;24.50;45.00;;;;;;5055992;28;20017;-50
2021/01/06 00:30:37;;;;;;;22.33;11.63;;;24.40;45.10;;;;;;5050510;28;20011;-49
2021/01/06 00:33:10;;;;;;;20.25;10.95;;;24.40;45.10;;;;;;5049830;28;20044;-49
2021/01/06 00:35:37;;;;;;;18.13;11.15;;;24.30;45.30;;;;;;5054640;28;20056;-49
2021/01/06 00:38:05;;;;;;;18.23;11.07;;;24.30;45.40;;;;;;5054746;28;20021;-49
2021/01/06 00:40:34;;;;;;;24.95;11.38;;;24.30;45.60;;;;;;5053431;28;20104;-50
2021/01/06 00:43:04;;;;;;;26.80;11.43;;;24.20;45.60;;;;;;5055089;28;20036;-49
2021/01/06 00:45:30;;;;;;;19.05;10.10;;;24.30;45.70;;;;;;5054873;28;20487;-49
2021/01/06 00:47:57;;;;;;;20.25;9.50;;;24.30;45.80;;;;;;5054742;28;20021;-49
2021/01/06 00:50:28;;;;;;;17.95;9.90;;;24.30;45.80;;;;;;5055082;28;20040;-49
2021/01/06 00:53:06;;;;;;;18.17;9.82;;;24.30;45.80;;;;;;5055122;28;20041;-49
2021/01/06 00:55:33;;;;;;;19.90;9.48;;;24.30;45.80;;;;;;5053524;28;20120;-49
2021/01/06 00:57:59;;;;;;;19.88;9.00;;;24.30;45.80;;;;;;5054950;28;20078;-49
2021/01/06 01:00:31;;;;;;;14.43;8.73;;;24.40;45.90;;;;;;5054129;28;20127;-49
2021/01/06 01:02:58;;;;;;;18.48;8.70;;;24.50;45.80;;;;;;5054676;28;20024;-49
2021/01/06 01:05:30;;;;;;;19.60;7.90;;;24.50;45.70;;;;;;5054797;28;20033;-50
2021/01/06 01:07:57;;;;;;;18.33;7.85;;;24.60;45.70;;;;;;5054563;28;20017;-49
2021/01/06 01:10:36;;;;;;;19.40;7.82;;;24.60;45.60;;;;;;5053920;28;20417;-49
2021/01/06 01:13:20;;;;;;;19.92;7.97;;;24.70;45.60;;;;;;5054757;28;20452;-49
2021/01/06 01:15:48;;;;;;;21.58;8.18;;;24.80;45.40;;;;;;5034488;28;20029;-50
2021/01/06 01:18:20;;;;;;;20.80;7.35;;;24.80;45.30;;;;;;5044995;28;20021;-50
2021/01/06 01:20:51;;;;;;;16.80;7.75;;;24.90;45.20;;;;;;5054327;28;20025;-49
2021/01/06 01:23:20;;;;;;;17.63;7.25;;;25.00;45.20;;;;;;5050971;28;20104;-50
2021/01/06 01:25:48;;;;;;;12.57;6.97;;;25.00;45.20;;;;;;5053992;28;20464;-50
2021/01/06 01:28:16;;;;;;;20.95;7.07;;;25.10;45.10;;;;;;5041063;28;20021;-49
2021/01/06 01:30:43;;;;;;;13.63;6.68;;;25.10;44.90;;;;;;5052646;28;20112;-49
2021/01/06 01:33:12;;;;;;;15.90;6.40;;;25.10;44.80;;;;;;5053792;28;20033;-49
2021/01/06 01:35:38;;;;;;;14.15;6.28;;;25.20;44.80;;;;;;5052401;28;20412;-50
2021/01/06 01:38:06;;;;;;;15.82;6.38;;;25.30;44.80;;;;;;5054313;28;20029;-49
2021/01/06 01:40:37;;;;;;;17.38;6.38;;;25.30;44.60;;;;;;5052941;28;20135;-50
2021/01/06 01:43:06;;;;;;;17.50;7.00;;;25.30;44.50;;;;;;5052108;28;20033;-49
2021/01/06 01:45:59;;;;;;;19.27;6.43;;;25.30;44.40;;;;;;5054052;28;20029;-49
2021/01/06 01:48:37;;;;;;;18.40;6.40;;;25.30;44.30;;;;;;5051077;28;20083;-50
2021/01/06 01:51:16;;;;;;;20.52;6.80;;;25.40;44.40;;;;;;5050900;28;20135;-50
2021/01/06 01:53:51;;;;;;;20.25;6.20;;;25.40;44.30;;;;;;5046030;28;20396;-50
2021/01/06 01:56:20;;;;;;;12.88;5.82;;;25.40;44.40;;;;;;5052871;28;20108;-49
2021/01/06 01:58:49;;;;;;;16.33;6.18;;;25.40;44.40;;;;;;5053550;28;20057;-49
2021/01/06 02:01:17;;;;;;;17.98;5.68;;;25.40;44.50;;;;;;5053769;28;20031;-49
2021/01/06 02:04:00;;;;;;;12.90;5.68;;;25.30;44.40;;;;;;5053727;28;20025;-50
2021/01/06 02:06:36;;;;;;;19.48;5.75;;;25.30;44.50;;;;;;5053736;28;20032;-49
2021/01/06 02:09:11;;;;;;;18.95;5.45;;;25.30;44.50;;;;;;5052937;28;20021;-50
2021/01/06 02:11:55;;;;;;;13.40;5.10;;;25.30;44.60;;;;;;5049839;28;20113;-49
2021/01/06 02:14:29;;;;;;;16.45;5.18;;;25.20;44.60;;;;;;5046744;28;20495;-49
2021/01/06 02:17:05;;;;;;;14.35;5.10;;;25.20;44.60;;;;;;5052923;28;20393;-50
2021/01/06 02:19:36;;;;;;;17.35;5.00;;;25.20;44.50;;;;;;5051232;28;20029;-49
2021/01/06 02:22:04;;;;;;;15.00;4.75;;;25.20;44.50;;;;;;5053450;28;20024;-49
2021/01/06 02:24:32;;;;;;;17.38;5.30;;;25.20;44.50;;;;;;5057369;28;20033;-49
2021/01/06 02:26:58;;;;;;;21.73;6.32;;;25.20;44.60;;;;;;5057317;28;20487;-49
2021/01/06 02:29:27;;;;;;;17.30;5.43;;;25.30;44.80;;;;;;5057100;28;20032;-50
2021/01/06 02:31:53;;;;;;;12.15;5.30;;;25.30;44.80;;;;;;5055631;28;20048;-50
2021/01/06 02:34:20;;;;;;;15.18;5.32;;;25.30;44.70;;;;;;5054912;28;20021;-49
2021/01/06 02:36:48;;;;;;;16.45;5.28;;;25.30;44.70;;;;;;5054748;28;20075;-48
2021/01/06 02:39:15;;;;;;;20.42;5.15;;;25.30;45.30;;;;;;5056511;28;20159;-49
2021/01/06 02:41:43;;;;;;;13.77;4.65;;;25.40;44.60;;;;;;5054059;28;20032;-50
2021/01/06 02:44:10;;;;;;;13.95;4.97;;;25.50;44.60;;;;;;5056300;28;20027;-50
2021/01/06 02:46:38;;;;;;;14.80;4.55;;;25.50;44.50;;;;;;5054703;28;20106;-50
2021/01/06 02:49:06;;;;;;;10.85;4.28;;;25.50;44.50;;;;;;5055995;28;20415;-49
2021/01/06 02:52:06;;;;;;;9.95;4.38;;;25.50;44.40;;;;;;5056612;28;20531;-49
2021/01/06 02:54:36;;;;;;;13.82;4.57;;;25.50;44.40;;;;;;5055865;28;20028;-50
2021/01/06 02:57:04;;;;;;;14.75;4.53;;;25.50;44.30;;;;;;5056193;28;20036;-49
2021/01/06 02:59:48;;;;;;;12.95;3.55;;;25.50;44.30;;;;;;5056780;28;20053;-50
2021/01/06 03:02:22;;;;;;;11.40;4.25;;;25.50;44.20;;;;;;5056865;28;20025;-49
2021/01/06 03:05:09;;;;;;;9.77;4.13;;;25.50;44.20;;;;;;5056707;28;20021;-49
2021/01/06 03:07:37;;;;;;;10.85;4.22;;;25.50;44.10;;;;;;5054952;28;20051;-49
2021/01/06 03:10:05;;;;;;;16.90;4.32;;;25.50;44.20;;;;;;5056192;28;20044;-49
2021/01/06 03:12:34;;;;;;;11.88;3.92;;;25.50;44.20;;;;;;5056668;28;20025;-50
2021/01/06 03:15:01;;;;;;;8.20;3.67;;;25.50;44.10;;;;;;5056487;28;20025;-49
2021/01/06 03:17:32;;;;;;;8.80;3.78;;;25.50;44.10;;;;;;5056163;28;20365;-49
2021/01/06 03:20:13;;;;;;;10.68;3.95;;;25.40;44.00;;;;;;5055738;28;20028;-49
2021/01/06 03:22:42;;;;;;;7.93;3.30;;;25.40;44.00;;;;;;5055174;28;20029;-50
2021/01/06 03:25:12;;;;;;;6.85;3.22;;;25.40;44.10;;;;;;5055394;28;20505;-50
2021/01/06 03:27:41;;;;;;;10.95;3.78;;;25.40;44.10;;;;;;5056352;28;20033;-49
2021/01/06 03:30:12;;;;;;;9.98;3.05;;;25.30;44.00;;;;;;5056478;28;20031;-50
2021/01/06 03:33:14;;;;;;;10.10;3.20;;;25.30;44.10;;;;;;5055270;28;20465;-49
2021/01/06 03:35:53;;;;;;;7.40;3.22;;;25.30;44.20;;;;;;5054917;28;20044;-49
2021/01/06 03:38:28;;;;;;;8.48;3.22;;;25.20;44.10;;;;;;5054813;28;20067;-49
2021/01/06 03:40:56;;;;;;;7.30;3.22;;;25.20;44.20;;;;;;5054615;28;20111;-50
2021/01/06 03:43:26;;;;;;;10.73;3.28;;;25.20;44.20;;;;;;5056022;28;20025;-50
2021/01/06 03:45:58;;;;;;;7.38;2.85;;;25.10;44.10;;;;;;5055935;28;20350;-50
2021/01/06 03:48:37;;;;;;;8.85;2.85;;;25.10;44.20;;;;;;5055654;28;20025;-49
2021/01/06 03:51:26;;;;;;;5.60;2.95;;;25.00;44.20;;;;;;5056526;28;20036;-49
2021/01/06 03:53:57;;;;;;;5.28;2.90;;;25.00;44.30;;;;;;5055326;28;20039;-49
2021/01/06 03:56:26;;;;;;;17.27;4.38;;;25.00;44.30;;;;;;5056012;28;20029;-50
2021/01/06 03:59:06;;;;;;;30.02;9.85;;;24.90;44.30;;;;;;5055389;28;20041;-50
2021/01/06 04:01:57;;;;;;;8.18;4.55;;;24.90;44.40;;;;;;5055893;28;20021;-49
2021/01/06 04:04:55;;;;;;;15.02;6.20;;;24.80;44.50;;;;;;5056112;28;20033;-50
2021/01/06 04:07:31;;;;;;;9.57;5.00;;;24.80;44.60;;;;;;5055661;28;20029;-49
2021/01/06 04:10:12;;;;;;;12.20;5.30;;;24.70;44.70;;;;;;5056156;28;20032;-49
2021/01/06 04:12:38;;;;;;;11.77;4.65;;;24.70;44.80;;;;;;5055898;28;20058;-49
2021/01/06 04:15:08;;;;;;;9.50;4.70;;;24.60;44.80;;;;;;5055209;28;20029;-49
2021/01/06 04:17:37;;;;;;;11.65;4.32;;;24.60;44.90;;;;;;5055256;28;20017;-50
2021/01/06 04:20:43;;;;;;;11.65;5.15;;;24.60;45.00;;;;;;5054769;28;20554;-49
2021/01/06 04:23:17;;;;;;;12.85;5.03;;;24.50;45.00;;;;;;5055480;28;20037;-49
2021/01/06 04:25:46;;;;;;;10.10;5.38;;;24.40;45.00;;;;;;5055380;28;20043;-49
2021/01/06 04:28:17;;;;;;;9.55;5.40;;;24.40;45.10;;;;;;5054845;28;20037;-49
2021/01/06 04:30:58;;;;;;;11.50;5.97;;;24.30;45.10;;;;;;5055194;28;20032;-50
2021/01/06 04:33:32;;;;;;;13.85;6.95;;;24.20;45.20;;;;;;5055689;28;20033;-50
2021/01/06 04:36:04;;;;;;;12.38;6.85;;;24.20;45.30;;;;;;5054900;28;20025;-49
2021/01/06 04:38:37;;;;;;;16.80;7.80;;;24.20;45.40;;;;;;5055639;28;20025;-50
2021/01/06 04:41:37;;;;;;;12.30;8.18;;;24.10;45.40;;;;;;5055292;28;20043;-50
2021/01/06 04:44:40;;;;;;;12.48;7.47;;;24.10;45.60;;;;;;5054116;28;20029;-50
2021/01/06 04:47:45;;;;;;;10.23;7.25;;;24.10;45.70;;;;;;5054710;28;20472;-50
2021/01/06 04:50:36;;;;;;;12.35;6.65;;;24.10;45.70;;;;;;5054781;28;20029;-50
2021/01/06 04:53:14;;;;;;;13.13;6.88;;;24.10;45.70;;;;;;5055418;28;20087;-50
2021/01/06 04:56:18;;;;;;;11.93;6.50;;;24.10;45.80;;;;;;5055099;28;20032;-50
2021/01/06 04:58:53;;;;;;;12.73;6.80;;;24.10;45.80;;;;;;5054753;28;20114;-50
2021/01/06 05:01:53;;;;;;;11.38;6.75;;;24.20;45.80;;;;;;5055474;28;20044;-49
2021/01/06 05:04:30;;;;;;;13.52;6.15;;;24.20;45.80;;;;;;5034485;28;20568;-49
2021/01/06 05:07:26;;;;;;;12.40;6.30;;;24.20;45.60;;;;;;5037005;28;20061;-50
2021/01/06 05:10:08;;;;;;;10.57;6.25;;;24.30;45.60;;;;;;5054051;28;20045;-49
2021/01/06 05:12:36;;;;;;;11.05;5.38;;;24.40;45.80;;;;;;5054474;28;20112;-49
2021/01/06 05:15:05;;;;;;;8.68;5.35;;;24.40;45.80;;;;;;5054329;28;20021;-49
2021/01/06 05:17:32;;;;;;;10.48;5.70;;;24.50;45.90;;;;;;5054146;28;20021;-49
2021/01/06 05:19:58;;;;;;;8.75;5.47;;;24.50;45.80;;;;;;5054033;28;20091;-49
2021/01/06 05:22:25;;;;;;;10.32;4.90;;;24.60;45.80;;;;;;5054240;28;20035;-50
2021/01/06 05:24:52;;;;;;;8.52;4.97;;;24.60;45.70;;;;;;5054237;28;20486;-49
2021/01/06 05:27:20;;;;;;;11.35;5.15;;;24.60;45.60;;;;;;5054193;28;20029;-49
2021/01/06 05:29:54;;;;;;;12.27;4.95;;;24.70;45.50;;;;;;5054777;28;20083;-50
2021/01/06 05:32:23;;;;;;;9.80;4.85;;;24.80;45.50;;;;;;5054636;28;20041;-50
2021/01/06 05:34:54;;;;;;;10.27;4.95;;;24.80;45.40;;;;;;5053502;28;20024;-50
2021/01/06 05:37:23;;;;;;;12.40;4.50;;;24.90;45.40;;;;;;5053852;28;20029;-50
2021/01/06 05:39:52;;;;;;;9.00;4.57;;;24.90;45.20;;;;;;5053979;28;20032;-50
2021/01/06 05:42:25;;;;;;;6.75;4.22;;;24.90;45.20;;;;;;5053979;28;20028;-50
2021/01/06 05:44:54;;;;;;;8.30;4.43;;;25.00;45.10;;;;;;5052680;28;20380;-50
2021/01/06 05:47:37;;;;;;;7.13;4.40;;;25.10;45.10;;;;;;5053906;28;20021;-50
2021/01/06 05:50:18;;;;;;;7.05;4.07;;;25.10;44.90;;;;;;5053527;28;20025;-50
2021/01/06 05:52:52;;;;;;;7.80;3.90;;;25.20;44.90;;;;;;5053887;28;20037;-50
2021/01/06 05:55:21;;;;;;;6.78;3.63;;;25.20;44.80;;;;;;5053996;28;20032;-50
2021/01/06 05:58:43;;;;;;;6.60;3.42;;;25.20;44.70;;;;;;5053227;28;20021;-50
2021/01/06 06:01:35;;;;;;;8.35;4.00;;;25.30;44.70;;;;;;5036426;28;20045;-49
2021/01/06 06:04:39;;;;;;;5.80;3.80;;;25.40;44.60;;;;;;5053282;28;20040;-50
2021/01/06 06:07:14;;;;;;;7.50;3.53;;;25.50;44.50;;;;;;5053500;28;20052;-50
2021/01/06 06:10:18;;;;;;;6.70;3.53;;;25.50;44.30;;;;;;5053873;28;20036;-50
2021/01/06 06:12:52;;;;;;;5.60;2.90;;;25.60;44.30;;;;;;5053616;28;20025;-50
2021/01/06 06:15:49;;;;;;;7.22;3.45;;;25.70;44.20;;;;;;5053438;28;20029;-49
2021/01/06 06:18:18;;;;;;;8.93;3.78;;;25.70;44.00;;;;;;5053013;28;20021;-50
2021/01/06 06:21:15;;;;;;;5.28;3.10;;;25.80;43.90;;;;;;5051594;28;20397;-51
2021/01/06 06:24:33;;;;;;;6.95;3.55;;;25.80;43.80;;;;;;5052963;28;20468;-50
2021/01/06 06:27:06;;;;;;;10.13;3.30;;;25.80;43.60;;;;;;5051294;28;20068;-50
2021/01/06 06:29:54;;;;;;;17.73;3.90;;;25.80;43.50;;;;;;5050880;28;20087;-50
2021/01/06 06:32:32;;;;;;;13.25;3.60;;;25.80;43.40;;;;;;5052061;28;20485;-49
2021/01/06 06:35:20;;;;;;;9.32;3.60;;;25.80;43.40;;;;;;5053512;28;20082;-50
2021/01/06 06:38:01;;;;;;;7.78;3.30;;;25.80;43.50;;;;;;5053751;28;20025;-50
2021/01/06 18:05:08;;;;;;;29.10;13.68;;;14.40;64.90;;;;;;5094088;27;20393;-49
2021/01/06 18:07:35;;;;;;;21.38;13.70;;;14.20;63.90;;;;;;5091415;28;20052;-49
2021/01/06 18:10:12;;;;;;;22.40;13.57;;;14.20;64.40;;;;;;5091410;28;20074;-50
2021/01/06 18:12:41;;;;;;;18.30;13.18;;;14.30;64.60;;;;;;5090959;28;20047;-50
2021/01/06 18:15:26;;;;;;;17.55;12.18;;;14.30;64.50;;;;;;5080451;28;20463;-49
2021/01/06 18:18:10;;;;;;;18.85;12.13;;;14.50;64.50;;;;;;5091309;28;20371;-50
2021/01/06 18:20:36;;;;;;;17.05;12.45;;;14.60;64.30;;;;;;5083060;28;20024;-50
2021/01/06 18:23:04;;;;;;;152.68;73.47;;;14.70;64.10;;;;;;5091048;28;20036;-50
2021/01/06 18:25:36;;;;;;;67.95;36.15;;;14.70;63.90;;;;;;5090393;28;20388;-50
2021/01/06 18:28:07;;;;;;;68.18;35.92;;;14.90;63.70;;;;;;5091342;28;20475;-49
2021/01/06 18:30:34;;;;;;;61.53;34.50;;;15.00;63.60;;;;;;5091072;28;20108;-50
2021/01/06 18:33:19;;;;;;;64.55;34.13;;;15.00;63.40;;;;;;5091102;28;20068;-51
2021/01/06 18:35:47;;;;;;;77.63;34.47;;;15.20;63.40;;;;;;5090996;28;20051;-49
2021/01/06 18:38:14;;;;;;;66.82;32.35;;;15.20;63.10;;;;;;5090490;28;20468;-50
2021/01/06 18:40:41;;;;;;;68.20;30.88;;;15.30;62.80;;;;;;5089877;28;20035;-49
2021/01/06 18:43:17;;;;;;;57.25;30.73;;;15.40;62.60;;;;;;5090895;28;20032;-50
2021/01/06 18:45:45;;;;;;;72.28;30.00;;;15.50;62.50;;;;;;5090549;28;20071;-49
2021/01/06 18:48:12;;;;;;;58.80;29.40;;;15.60;62.30;;;;;;5090699;28;20027;-50
2021/01/06 18:50:39;;;;;;;63.95;29.58;;;15.70;62.10;;;;;;5090583;28;20016;-50
2021/01/06 18:53:24;;;;;;;56.80;29.02;;;15.80;61.90;;;;;;5090614;28;20028;-50
2021/01/06 18:56:00;;;;;;;49.95;26.23;;;15.90;61.70;;;;;;5090597;28;20024;-49
2021/01/06 18:58:30;;;;;;;51.95;24.70;;;16.00;61.50;;;;;;5090564;28;20032;-49
2021/01/06 19:01:12;;;;;;;55.67;26.25;;;16.10;61.30;;;;;;5090425;28;20479;-49
2021/01/06 19:03:38;;;;;;;52.58;23.88;;;16.20;61.10;;;;;;5090072;28;20063;-49
2021/01/06 19:06:05;;;;;;;50.17;21.83;;;16.30;60.90;;;;;;5090052;28;20111;-49
2021/01/06 19:08:33;;;;;;;37.67;21.17;;;16.40;60.70;;;;;;5089964;28;20029;-49
2021/01/06 19:11:15;;;;;;;52.78;22.25;;;16.50;60.50;;;;;;5089903;28;20024;-49
2021/01/06 19:13:52;;;;;;;43.45;19.90;;;16.70;60.30;;;;;;5095232;28;20028;-49
2021/01/06 19:16:31;;;;;;;45.42;20.50;;;16.80;60.00;;;;;;5096857;28;20025;-49
2021/01/06 19:19:08;;;;;;;41.88;20.45;;;16.90;59.70;;;;;;5096857;28;20120;-49
2021/01/06 19:21:34;;;;;;;48.53;19.20;;;17.10;59.50;;;;;;5096800;28;20020;-50
2021/01/06 19:24:01;;;;;;;35.38;18.50;;;17.20;59.30;;;;;;5096660;28;20079;-49
2021/01/06 19:26:27;;;;;;;38.95;18.50;;;17.30;59.60;;;;;;5096699;28;20032;-50
2021/01/06 19:28:54;;;;;;;40.40;18.05;;;17.40;58.70;;;;;;5096242;28;20356;-49
2021/01/06 19:31:24;;;;;;;40.50;17.30;;;17.60;58.60;;;;;;5096623;28;20391;-50
2021/01/06 19:33:56;;;;;;;37.22;16.30;;;17.60;58.30;;;;;;5077413;28;20040;-49
2021/01/06 19:36:22;;;;;;;38.42;16.48;;;17.80;58.70;;;;;;5076323;28;20031;-48
2021/01/06 19:38:54;;;;;;;43.97;16.08;;;17.90;59.50;;;;;;5075944;28;20376;-48
2021/01/06 19:41:29;;;;;;;31.97;15.53;;;18.10;58.90;;;;;;5073239;28;20025;-49
2021/01/06 19:43:57;;;;;;;29.55;13.80;;;18.20;58.50;;;;;;5057512;28;20040;-49
2021/01/06 19:46:36;;;;;;;32.03;13.63;;;18.30;58.10;;;;;;5065456;28;20036;-49
2021/01/06 19:49:19;;;;;;;32.08;14.68;;;18.50;57.90;;;;;;5075854;28;20100;-49
2021/01/06 19:52:00;;;;;;;28.83;13.30;;;18.70;57.60;;;;;;5076219;28;20017;-49
2021/01/06 19:54:29;;;;;;;26.33;12.25;;;18.90;57.10;;;;;;5076222;28;20030;-49
2021/01/06 19:56:57;;;;;;;29.23;12.95;;;19.00;56.80;;;;;;5075835;28;20028;-49
2021/01/06 19:59:24;;;;;;;23.25;12.13;;;19.20;56.40;;;;;;5076477;28;20052;-49
2021/01/06 20:01:51;;;;;;;21.77;10.77;;;19.30;56.10;;;;;;5075383;28;20505;-49
2021/01/06 20:04:24;;;;;;;23.63;11.30;;;19.50;55.80;;;;;;5075261;28;20071;-49
2021/01/06 20:06:50;;;;;;;24.90;10.18;;;19.60;55.40;;;;;;5075670;28;20036;-49
2021/01/06 20:09:17;;;;;;;53.55;39.45;;;19.70;54.90;;;;;;5075173;28;20468;-49
2021/01/06 20:11:45;;;;;;;30.15;13.50;;;19.80;54.70;;;;;;5074756;28;20438;-50
2021/01/06 20:14:14;;;;;;;42.70;13.32;;;20.00;54.50;;;;;;5074455;28;20088;-50
2021/01/06 20:16:43;;;;;;;27.67;11.82;;;20.00;54.10;;;;;;5073648;28;20457;-50
2021/01/06 20:19:10;;;;;;;34.72;12.70;;;20.20;54.10;;;;;;5075045;28;20478;-50
2021/01/06 20:21:37;;;;;;;25.80;12.00;;;20.30;53.90;;;;;;5075052;28;20039;-50
2021/01/06 20:24:06;;;;;;;25.80;12.05;;;20.30;53.60;;;;;;5075210;28;20036;-49
2021/01/06 20:26:33;;;;;;;22.67;11.10;;;20.40;53.40;;;;;;5073905;28;20061;-50
2021/01/06 20:29:00;;;;;;;28.30;10.45;;;20.50;53.30;;;;;;5075490;28;20422;-50
2021/01/06 20:31:26;;;;;;;25.25;10.40;;;20.50;53.10;;;;;;5075425;28;20135;-49
2021/01/06 20:33:54;;;;;;;23.90;9.90;;;20.60;53.00;;;;;;5075180;28;20108;-50
2021/01/06 20:36:25;;;;;;;24.40;10.50;;;20.70;52.80;;;;;;5075105;28;20032;-49
2021/01/06 20:38:52;;;;;;;21.13;9.68;;;20.80;52.60;;;;;;5074223;28;20063;-50
2021/01/06 20:41:18;;;;;;;20.13;9.15;;;20.90;52.50;;;;;;5075029;28;20357;-50
2021/01/06 20:43:45;;;;;;;22.83;9.05;;;21.00;52.20;;;;;;5074906;28;20036;-50
2021/01/06 20:46:12;;;;;;;20.98;9.10;;;21.10;52.00;;;;;;5075153;28;20029;-50
2021/01/06 20:48:38;;;;;;;16.50;8.45;;;21.20;51.80;;;;;;5074863;28;20025;-50
2021/01/06 20:51:05;;;;;;;17.63;8.13;;;21.30;52.30;;;;;;5074521;28;20028;-49
2021/01/06 20:53:34;;;;;;;14.85;8.23;;;21.50;51.40;;;;;;5074508;28;20025;-50
2021/01/06 20:56:00;;;;;;;24.35;8.07;;;21.50;51.20;;;;;;5074726;28;20032;-50
2021/01/06 20:58:27;;;;;;;15.75;7.63;;;21.70;51.00;;;;;;5074830;28;20028;-50
2021/01/06 21:00:53;;;;;;;12.25;7.63;;;21.70;50.70;;;;;;5073597;28;20041;-49
2021/01/06 21:03:20;;;;;;;18.85;7.47;;;21.90;50.50;;;;;;5074190;28;20040;-50
2021/01/06 21:05:48;;;;;;;16.10;7.10;;;21.90;50.20;;;;;;5074534;28;20020;-49
2021/01/06 21:08:15;;;;;;;19.67;7.20;;;22.10;50.00;;;;;;5074397;28;20047;-50
2021/01/06 21:10:41;;;;;;;13.25;6.40;;;22.10;49.80;;;;;;5074471;28;20028;-50
2021/01/06 21:13:08;;;;;;;14.80;7.07;;;22.20;49.60;;;;;;5074311;28;20036;-50
2021/01/06 21:15:34;;;;;;;12.20;6.00;;;22.30;49.50;;;;;;5074404;28;20047;-49
2021/01/06 21:18:01;;;;;;;11.30;6.28;;;22.30;49.30;;;;;;5074300;28;20025;-50
2021/01/06 21:20:28;;;;;;;15.18;6.55;;;22.40;49.20;;;;;;5073926;28;20472;-50
2021/01/06 21:22:54;;;;;;;11.90;6.18;;;22.50;49.00;;;;;;5074277;28;20033;-50
2021/01/06 21:25:21;;;;;;;10.30;5.72;;;22.50;48.80;;;;;;5073946;28;20025;-50
2021/01/06 21:27:47;;;;;;;10.88;5.32;;;22.60;48.80;;;;;;5073838;28;20119;-49
2021/01/06 21:30:14;;;;;;;11.73;5.25;;;22.60;48.60;;;;;;5073854;28;20472;-50
2021/01/06 21:32:45;;;;;;;7.93;5.00;;;22.60;48.50;;;;;;5074052;28;20025;-50
2021/01/06 21:35:14;;;;;;;12.23;5.30;;;22.70;48.40;;;;;;5074124;28;20028;-49
2021/01/06 21:37:41;;;;;;;9.45;5.18;;;22.70;48.30;;;;;;5074313;28;20024;-50
2021/01/06 21:40:11;;;;;;;10.02;4.93;;;22.70;48.30;;;;;;5073686;28;20027;-50
2021/01/06 21:42:37;;;;;;;10.35;4.35;;;22.70;48.10;;;;;;5073994;28;20033;-50
2021/01/06 21:45:09;;;;;;;13.00;5.03;;;22.70;48.10;;;;;;5073987;28;20024;-49
2021/01/06 21:47:36;;;;;;;10.50;4.90;;;22.80;47.50;;;;;;5074305;28;20034;-50
2021/01/06 21:50:04;;;;;;;9.27;4.53;;;22.80;48.00;;;;;;5074209;28;20089;-50
2021/01/06 21:52:31;;;;;;;9.23;4.10;;;22.80;47.90;;;;;;5073884;28;20079;-49
2021/01/06 21:54:57;;;;;;;10.88;4.22;;;22.80;47.90;;;;;;5073488;28;20036;-49
2021/01/06 21:57:23;;;;;;;8.60;4.35;;;22.80;47.80;;;;;;5073832;28;20452;-50
2021/01/06 21:59:50;;;;;;;7.72;4.18;;;22.80;47.80;;;;;;5073823;28;20074;-49
2021/01/06 22:02:16;;;;;;;7.38;4.20;;;22.80;47.80;;;;;;5073819;28;20059;-50
2021/01/06 22:04:43;;;;;;;6.97;4.03;;;22.80;47.80;;;;;;5073874;28;20044;-50
2021/01/06 22:07:09;;;;;;;7.07;3.90;;;22.80;47.80;;;;;;5073451;28;20070;-49
2021/01/06 22:09:36;;;;;;;7.13;3.78;;;22.80;47.80;;;;;;5073624;28;20025;-49
2021/01/06 22:12:06;;;;;;;7.03;3.92;;;22.80;47.70;;;;;;5073304;28;20468;-50
2021/01/06 22:14:32;;;;;;;8.15;3.80;;;22.80;47.70;;;;;;5072811;28;20033;-49
2021/01/06 22:16:59;;;;;;;7.30;3.72;;;22.80;47.70;;;;;;5072989;28;20032;-50
2021/01/06 22:19:26;;;;;;;7.80;3.92;;;22.80;47.80;;;;;;5073516;28;20024;-49
2021/01/06 22:21:52;;;;;;;5.90;3.80;;;22.80;47.80;;;;;;5073068;28;20075;-49
2021/01/06 22:24:19;;;;;;;5.45;3.35;;;22.90;47.90;;;;;;5073636;28;20035;-49
2021/01/06 22:26:52;;;;;;;8.38;3.65;;;22.80;47.80;;;;;;5073289;28;20016;-49
2021/01/06 22:29:19;;;;;;;9.30;3.67;;;22.90;47.80;;;;;;5070581;28;20039;-49
2021/01/06 22:31:45;;;;;;;16.10;4.07;;;22.90;48.00;;;;;;5064354;28;20155;-49
2021/01/06 22:34:12;;;;;;;9.35;3.30;;;22.90;48.00;;;;;;5057423;28;20464;-48
2021/01/06 22:36:38;;;;;;;11.45;3.72;;;22.90;48.00;;;;;;5072805;28;20056;-48
2021/01/06 22:39:05;;;;;;;8.05;3.58;;;22.80;47.90;;;;;;5073024;28;20024;-48
2021/01/06 22:41:33;;;;;;;11.30;3.72;;;22.80;47.90;;;;;;5073404;28;20433;-49
2021/01/06 22:44:00;;;;;;;10.45;3.78;;;22.80;48.00;;;;;;5073682;28;20090;-48
2021/01/06 22:46:26;;;;;;;11.93;3.72;;;22.80;48.10;;;;;;5073560;28;20067;-48
2021/01/06 22:48:53;;;;;;;5.65;3.20;;;22.80;48.20;;;;;;5073218;28;20070;-48
2021/01/06 22:51:30;;;;;;;9.77;3.33;;;22.70;48.20;;;;;;5076273;28;20109;-49
2021/01/06 22:53:56;;;;;;;7.80;3.20;;;22.70;48.20;;;;;;5076496;28;20046;-49
2021/01/06 22:56:30;;;;;;;9.80;3.38;;;22.70;48.20;;;;;;5077047;28;20023;-49
2021/01/06 22:58:57;;;;;;;14.15;3.38;;;22.70;48.30;;;;;;5076979;28;20035;-49
2021/01/06 23:01:25;;;;;;;7.78;3.35;;;22.60;48.30;;;;;;5076784;28;20082;-49
2021/01/06 23:03:52;;;;;;;6.47;3.17;;;22.70;48.40;;;;;;5076896;28;20446;-49
2021/01/06 23:06:19;;;;;;;11.80;3.10;;;22.60;48.40;;;;;;5077568;28;20081;-48
2021/01/06 23:08:47;;;;;;;9.02;3.30;;;22.60;48.40;;;;;;5076775;28;20021;-49
2021/01/06 23:11:13;;;;;;;6.32;2.97;;;22.50;48.50;;;;;;5076729;28;20078;-49
2021/01/06 23:13:40;;;;;;;8.65;3.50;;;22.50;48.50;;;;;;5076653;28;20029;-49
2021/01/06 23:16:07;;;;;;;8.77;3.33;;;22.50;48.60;;;;;;5076381;28;20037;-49
2021/01/06 23:18:34;;;;;;;8.93;3.50;;;22.40;48.60;;;;;;5075534;28;20124;-49
2021/01/06 23:21:01;;;;;;;11.05;3.92;;;22.40;48.70;;;;;;5084246;28;20380;-49
2021/01/06 23:23:28;;;;;;;7.28;3.38;;;22.40;48.80;;;;;;5076463;28;20036;-49
2021/01/06 23:25:55;;;;;;;7.70;2.80;;;22.40;48.90;;;;;;5076242;28;20028;-49
2021/01/06 23:28:21;;;;;;;8.40;2.97;;;22.40;49.00;;;;;;5076414;28;20025;-49
2021/01/06 23:30:48;;;;;;;7.20;3.08;;;22.40;49.00;;;;;;5076147;28;20021;-49
2021/01/06 23:33:15;;;;;;;7.57;3.17;;;22.50;49.00;;;;;;5074951;28;20039;-49
2021/01/06 23:35:41;;;;;;;6.57;2.95;;;22.50;49.10;;;;;;5076245;28;20021;-49
2021/01/06 23:38:08;;;;;;;6.68;3.08;;;22.60;49.10;;;;;;5076391;28;20028;-49
2021/01/06 23:40:34;;;;;;;9.20;3.13;;;22.60;49.10;;;;;;5076513;28;20486;-49
2021/01/06 23:43:01;;;;;;;5.78;2.83;;;22.60;49.00;;;;;;5075907;28;20104;-48
2021/01/06 23:45:27;;;;;;;5.97;2.75;;;22.70;49.00;;;;;;5075748;28;20385;-49
2021/01/06 23:47:54;;;;;;;6.90;2.92;;;22.70;49.00;;;;;;5074377;28;20028;-48
2021/01/06 23:50:20;;;;;;;6.07;2.90;;;22.80;48.90;;;;;;5075805;28;20101;-49
2021/01/06 23:52:47;;;;;;;7.25;2.65;;;22.80;48.80;;;;;;5075371;28;20458;-48
2021/01/06 23:55:13;;;;;;;8.75;2.53;;;22.90;48.80;;;;;;5073825;28;20368;-48
2021/01/06 23:57:40;;;;;;;9.98;3.00;;;22.90;48.70;;;;;;5074911;28;20040;-49
